createdAt,value
2017-12-31T00:04:26.534Z,3.23
2017-12-31T00:09:09.995Z,3.43
2017-12-31T00:13:52.739Z,3.77
2017-12-31T00:18:35.470Z,4.17
2017-12-31T00:23:18.301Z,4.00
2017-12-31T00:28:01.034Z,4.17
2017-12-31T00:32:43.727Z,3.77
2017-12-31T00:37:26.467Z,3.70
2017-12-31T00:42:09.262Z,4.70
2017-12-31T00:46:51.986Z,4.57
2017-12-31T00:51:34.742Z,3.27
2017-12-31T00:56:17.530Z,3.40
2017-12-31T01:01:00.292Z,3.83
2017-12-31T01:05:43.124Z,3.17
2017-12-31T01:10:25.976Z,3.87
2017-12-31T01:15:08.743Z,3.50
2017-12-31T01:19:51.528Z,3.47
2017-12-31T01:24:35.016Z,4.03
2017-12-31T01:29:17.758Z,3.80
2017-12-31T01:34:00.491Z,3.20
2017-12-31T01:38:43.222Z,3.53
2017-12-31T01:43:26.015Z,3.57
2017-12-31T01:48:08.748Z,4.23
2017-12-31T01:52:51.431Z,3.17
2017-12-31T01:57:35.031Z,3.67
2017-12-31T02:02:17.806Z,4.00
2017-12-31T02:07:00.596Z,4.80
2017-12-31T02:11:43.356Z,3.93
2017-12-31T02:16:26.174Z,3.87
2017-12-31T02:21:08.956Z,4.23
2017-12-31T02:25:51.745Z,3.67
2017-12-31T02:30:34.548Z,4.43
2017-12-31T02:35:17.238Z,4.80
2017-12-31T02:39:59.942Z,3.07
2017-12-31T02:44:43.461Z,4.13
2017-12-31T02:49:26.183Z,4.77
2017-12-31T02:54:08.976Z,3.83
2017-12-31T02:58:51.742Z,3.90
2017-12-31T03:03:34.466Z,3.97
2017-12-31T03:08:17.336Z,3.63
2017-12-31T03:13:00.075Z,4.37
2017-12-31T03:17:42.882Z,5.17
2017-12-31T03:22:25.669Z,4.40
2017-12-31T03:27:08.491Z,4.40
2017-12-31T03:31:52.136Z,4.60
2017-12-31T03:36:34.882Z,5.00
2017-12-31T03:41:18.376Z,4.30
2017-12-31T03:46:01.156Z,4.60
2017-12-31T03:50:43.898Z,4.70
2017-12-31T03:55:26.761Z,4.77
2017-12-31T04:00:09.614Z,5.83
2017-12-31T04:04:53.658Z,4.40
2017-12-31T04:09:36.424Z,5.00
2017-12-31T04:14:19.187Z,5.43
2017-12-31T04:19:03.451Z,5.60
2017-12-31T04:23:46.749Z,5.23
2017-12-31T04:28:29.498Z,5.37
2017-12-31T04:33:12.279Z,5.47
2017-12-31T04:37:54.958Z,4.90
2017-12-31T04:42:37.706Z,5.70
2017-12-31T04:47:21.217Z,4.70
2017-12-31T04:52:04.037Z,5.87
2017-12-31T04:56:46.864Z,5.57
2017-12-31T05:01:29.598Z,4.90
2017-12-31T05:06:12.339Z,5.97
2017-12-31T05:10:55.070Z,4.53
2017-12-31T05:15:38.574Z,6.63
2017-12-31T05:20:21.250Z,5.17
2017-12-31T05:25:05.191Z,6.23
2017-12-31T05:29:47.934Z,5.50
2017-12-31T05:34:30.626Z,5.20
2017-12-31T05:39:13.343Z,6.40
2017-12-31T05:43:56.192Z,4.60
2017-12-31T05:48:39.116Z,6.27
2017-12-31T05:53:21.830Z,5.43
2017-12-31T05:58:04.615Z,4.87
2017-12-31T06:02:47.347Z,4.57
2017-12-31T06:07:30.113Z,5.50
2017-12-31T06:12:14.747Z,5.70
2017-12-31T06:16:58.064Z,4.87
2017-12-31T06:21:41.259Z,4.40
2017-12-31T06:26:38.058Z,4.40
2017-12-31T06:31:21.087Z,4.13
2017-12-31T06:36:03.831Z,3.33
2017-12-31T06:40:46.565Z,3.23
2017-12-31T06:45:29.306Z,2.90
2017-12-31T06:50:12.026Z,2.70
2017-12-31T06:54:54.723Z,3.77
2017-12-31T06:59:42.031Z,2.73
2017-12-31T07:04:24.737Z,1.97
2017-12-31T07:09:07.731Z,2.50
2017-12-31T07:13:51.788Z,2.70
2017-12-31T07:18:34.494Z,3.43
2017-12-31T07:23:17.601Z,3.33
2017-12-31T07:28:01.996Z,2.90
2017-12-31T07:32:44.771Z,2.60
2017-12-31T07:37:27.518Z,2.90
2017-12-31T07:42:11.030Z,3.03
2017-12-31T07:46:53.916Z,2.43
2017-12-31T07:51:36.703Z,2.73
2017-12-31T07:56:19.405Z,2.87
2017-12-31T08:01:02.232Z,2.90
2017-12-31T08:05:44.938Z,2.60
2017-12-31T08:10:27.638Z,3.10
2017-12-31T08:15:10.342Z,2.90
2017-12-31T08:19:53.903Z,2.60
2017-12-31T08:24:36.670Z,2.30
2017-12-31T08:29:23.569Z,2.20
2017-12-31T08:34:14.790Z,2.40
2017-12-31T08:38:59.099Z,2.40
2017-12-31T08:43:42.456Z,3.30
2017-12-31T08:48:25.922Z,4.13
2017-12-31T08:53:08.651Z,3.07
2017-12-31T08:57:52.117Z,3.30
2017-12-31T09:02:34.825Z,2.30
2017-12-31T09:07:17.551Z,1.97
2017-12-31T09:12:00.294Z,1.57
2017-12-31T09:16:43.734Z,1.20
2017-12-31T09:21:27.232Z,0.90
2017-12-31T09:26:10.155Z,1.03
2017-12-31T09:30:53.099Z,0.90
2017-12-31T09:35:35.794Z,0.57
2017-12-31T09:40:18.507Z,1.23
2017-12-31T09:45:02.726Z,1.07
2017-12-31T09:49:56.759Z,1.33
2017-12-31T09:54:41.836Z,1.93
2017-12-31T09:59:24.504Z,1.40
2017-12-31T10:04:07.290Z,1.30
2017-12-31T10:08:49.999Z,1.73
2017-12-31T10:13:33.479Z,8.90
2017-12-31T10:18:16.210Z,3.93
2017-12-31T10:22:59.810Z,3.47
2017-12-31T10:27:42.706Z,1.80
2017-12-31T10:32:25.788Z,1.50
2017-12-31T10:37:08.523Z,2.43
2017-12-31T10:41:51.356Z,1.47
2017-12-31T10:46:34.104Z,1.80
2017-12-31T10:51:17.064Z,1.80
2017-12-31T10:55:59.967Z,1.40
2017-12-31T11:00:43.005Z,2.57
2017-12-31T11:05:26.475Z,4.57
2017-12-31T11:10:09.231Z,1.80
2017-12-31T11:14:52.007Z,1.40
2017-12-31T11:19:34.804Z,1.10
2017-12-31T11:24:18.547Z,1.83
2017-12-31T11:29:01.239Z,1.50
2017-12-31T11:33:44.714Z,2.00
2017-12-31T11:38:27.511Z,1.53
2017-12-31T11:43:10.351Z,1.40
2017-12-31T11:47:54.866Z,1.50
2017-12-31T11:52:37.622Z,1.20
2017-12-31T11:57:20.375Z,1.23
2017-12-31T12:02:03.294Z,1.50
2017-12-31T12:06:46.119Z,1.30
2017-12-31T12:11:28.799Z,0.90
2017-12-31T12:16:12.352Z,1.07
2017-12-31T12:20:55.148Z,1.27
2017-12-31T12:25:37.867Z,1.03
2017-12-31T12:30:20.607Z,0.93
2017-12-31T12:35:04.942Z,1.70
2017-12-31T12:39:47.992Z,1.10
2017-12-31T12:44:30.834Z,1.30
2017-12-31T12:49:13.566Z,1.00
2017-12-31T12:53:56.256Z,1.40
2017-12-31T12:58:39.119Z,1.00
2017-12-31T13:03:21.906Z,1.30
2017-12-31T13:08:04.716Z,1.30
2017-12-31T13:12:48.304Z,0.90
2017-12-31T13:17:31.208Z,0.97
2017-12-31T13:22:13.957Z,1.30
2017-12-31T13:26:56.670Z,1.23
2017-12-31T13:31:39.427Z,1.77
2017-12-31T13:36:22.169Z,0.90
2017-12-31T15:05:05.304Z,1.20
2017-12-31T15:09:48.191Z,1.73
2017-12-31T15:14:30.916Z,1.47
2017-12-31T15:19:15.007Z,1.33
2017-12-31T15:23:57.823Z,1.63
2017-12-31T15:28:40.625Z,2.23
2017-12-31T15:33:23.353Z,2.00
2017-12-31T15:38:06.101Z,1.50
2017-12-31T15:42:48.830Z,2.13
2017-12-31T15:47:32.290Z,1.20
2017-12-31T15:52:14.969Z,1.70
2017-12-31T15:56:58.436Z,1.50
2017-12-31T16:01:41.968Z,2.30
2017-12-31T16:06:25.428Z,2.70
2017-12-31T16:11:08.192Z,2.27
2017-12-31T16:15:51.712Z,19.37
2017-12-31T16:20:34.457Z,2.50
2017-12-31T16:25:17.177Z,2.10
2017-12-31T16:30:06.975Z,19.50
2017-12-31T16:34:50.067Z,2.40
2017-12-31T16:39:32.758Z,2.33
2017-12-31T16:44:15.478Z,8.87
2017-12-31T16:48:58.190Z,2.87
2017-12-31T16:53:41.658Z,1.87
2017-12-31T16:58:24.678Z,1.93
2017-12-31T17:03:08.236Z,2.03
2017-12-31T17:07:51.060Z,1.63
2017-12-31T17:12:34.010Z,3.07
2017-12-31T17:17:16.780Z,4.77
2017-12-31T17:21:59.622Z,3.63
2017-12-31T17:26:42.325Z,1.97
2017-12-31T17:31:25.160Z,1.77
2017-12-31T17:36:08.030Z,1.70
2017-12-31T17:40:51.486Z,1.93
2017-12-31T17:45:34.256Z,2.50
2017-12-31T17:50:17.104Z,2.90
2017-12-31T17:54:59.799Z,2.93
2017-12-31T17:59:42.511Z,2.57
2017-12-31T18:04:25.350Z,1.60
2017-12-31T18:09:08.097Z,1.90
2017-12-31T18:13:50.804Z,1.93
2017-12-31T18:18:34.260Z,1.37
2017-12-31T18:23:17.048Z,2.20
2017-12-31T18:27:59.899Z,1.50
2017-12-31T18:32:42.651Z,1.40
2017-12-31T18:37:25.412Z,4.73
2017-12-31T18:42:08.225Z,4.93
2017-12-31T18:46:50.921Z,3.37
2017-12-31T18:51:33.670Z,5.70
2017-12-31T18:56:17.230Z,4.13
2017-12-31T19:00:59.992Z,3.10
2017-12-31T19:05:43.517Z,1.60
2017-12-31T19:10:26.260Z,1.97
2017-12-31T19:15:09.012Z,1.70
2017-12-31T19:19:52.521Z,3.07
2017-12-31T19:24:35.222Z,7.83
2017-12-31T19:34:00.615Z,2.57
2017-12-31T19:38:49.867Z,2.37
2017-12-31T19:43:32.586Z,4.63
2017-12-31T19:48:15.359Z,2.40
2017-12-31T19:52:58.142Z,2.43
2017-12-31T19:57:41.635Z,3.03
2017-12-31T20:02:24.413Z,2.10
2017-12-31T20:07:07.132Z,3.93
2017-12-31T20:11:49.858Z,1.83
2017-12-31T20:16:32.585Z,2.40
2017-12-31T20:21:15.419Z,2.07
2017-12-31T20:25:58.284Z,2.07
2017-12-31T20:30:41.056Z,1.90
2017-12-31T20:35:23.775Z,2.83
2017-12-31T20:40:06.614Z,1.93
2017-12-31T20:44:49.342Z,1.70
2017-12-31T20:49:32.096Z,2.10
2017-12-31T20:54:14.836Z,5.23
2017-12-31T20:58:57.563Z,17.10
2017-12-31T21:03:40.312Z,58.70
2017-12-31T21:08:23.140Z,51.20
2017-12-31T21:13:06.041Z,5.47
2017-12-31T21:17:48.769Z,2.10
2017-12-31T21:22:31.461Z,2.10
2017-12-31T21:27:14.900Z,2.73
2017-12-31T21:31:57.572Z,3.37
2017-12-31T21:36:40.457Z,3.17
2017-12-31T21:41:23.282Z,2.70
2017-12-31T21:46:06.188Z,2.83
2017-12-31T21:50:48.853Z,2.57
2017-12-31T21:55:31.724Z,1.60
2017-12-31T22:00:14.652Z,2.10
2017-12-31T22:04:57.464Z,2.60
2017-12-31T22:09:40.218Z,3.47
2017-12-31T22:14:22.875Z,3.07
2017-12-31T22:19:05.873Z,2.70
2017-12-31T22:23:48.566Z,2.63
2017-12-31T22:28:31.293Z,2.93
2017-12-31T22:33:13.984Z,2.43
2017-12-31T22:37:56.818Z,2.80
2017-12-31T22:42:39.622Z,3.47
2017-12-31T22:47:22.996Z,3.07
2017-12-31T22:52:06.697Z,2.73
2017-12-31T22:56:49.542Z,2.20
2017-12-31T23:01:32.364Z,3.23
2017-12-31T23:06:15.595Z,15.13
2017-12-31T23:10:58.985Z,142.70
2017-12-31T23:15:41.915Z,331.87
2017-12-31T23:20:24.656Z,113.23
2017-12-31T23:25:07.429Z,20.57
2017-12-31T23:29:50.242Z,33.37
2017-12-31T23:34:32.990Z,27.87
2017-12-31T23:39:15.684Z,27.27
2017-12-31T23:43:58.541Z,17.10
2017-12-31T23:48:41.399Z,15.07
2017-12-31T23:53:24.320Z,9.37
2017-12-31T23:58:07.329Z,13.73
